sensor_id;sensor_type;location;lat;lon;timestamp;P1;durP1;ratioP1;P2;durP2;ratioP2
52208;SDS011;38507;53.132;6.394;2023-04-24T00:01:31;6.40;;;4.18;;
52208;SDS011;38507;53.132;6.394;2023-04-24T00:03:59;6.18;;;3.70;;
52208;SDS011;38507;53.132;6.394;2023-04-24T00:06:25;5.80;;;4.20;;
52208;SDS011;38507;53.132;6.394;2023-04-24T00:08:58;5.88;;;3.80;;
52208;SDS011;38507;53.132;6.394;2023-04-24T00:11:27;5.90;;;3.42;;
52208;SDS011;38507;53.132;6.394;2023-04-24T00:13:53;7.28;;;3.70;;
52208;SDS011;38507;53.132;6.394;2023-04-24T00:16:19;7.97;;;3.75;;
52208;SDS011;38507;53.132;6.394;2023-04-24T00:18:45;4.88;;;3.65;;
52208;SDS011;38507;53.132;6.394;2023-04-24T00:21:12;4.20;;;3.30;;
52208;SDS011;38507;53.132;6.394;2023-04-24T00:23:38;6.95;;;3.63;;
52208;SDS011;38507;53.132;6.394;2023-04-24T00:26:04;5.53;;;3.25;;
52208;SDS011;38507;53.132;6.394;2023-04-24T00:28:30;5.03;;;2.40;;
52208;SDS011;38507;53.132;6.394;2023-04-24T00:30:55;3.65;;;2.08;;
52208;SDS011;38507;53.132;6.394;2023-04-24T00:33:21;3.78;;;2.13;;
52208;SDS011;38507;53.132;6.394;2023-04-24T00:35:47;4.03;;;2.22;;
52208;SDS011;38507;53.132;6.394;2023-04-24T00:38:12;4.75;;;2.30;;
52208;SDS011;38507;53.132;6.394;2023-04-24T00:40:38;3.13;;;2.10;;
52208;SDS011;38507;53.132;6.394;2023-04-24T00:43:04;4.88;;;1.88;;
52208;SDS011;38507;53.132;6.394;2023-04-24T00:45:30;2.45;;;1.77;;
52208;SDS011;38507;53.132;6.394;2023-04-24T00:47:56;2.42;;;2.00;;
52208;SDS011;38507;53.132;6.394;2023-04-24T00:50:23;4.60;;;2.20;;
52208;SDS011;38507;53.132;6.394;2023-04-24T00:52:49;2.80;;;1.60;;
52208;SDS011;38507;53.132;6.394;2023-04-24T00:55:15;3.03;;;1.70;;
52208;SDS011;38507;53.132;6.394;2023-04-24T00:57:41;2.60;;;1.45;;
52208;SDS011;38507;53.132;6.394;2023-04-24T01:00:08;3.13;;;1.23;;
52208;SDS011;38507;53.132;6.394;2023-04-24T01:02:38;3.30;;;1.38;;
52208;SDS011;38507;53.132;6.394;2023-04-24T01:05:05;2.95;;;1.13;;
52208;SDS011;38507;53.132;6.394;2023-04-24T01:07:33;2.65;;;1.27;;
52208;SDS011;38507;53.132;6.394;2023-04-24T01:09:59;1.92;;;1.17;;
52208;SDS011;38507;53.132;6.394;2023-04-24T01:12:25;4.38;;;1.17;;
52208;SDS011;38507;53.132;6.394;2023-04-24T01:14:50;2.50;;;1.20;;
52208;SDS011;38507;53.132;6.394;2023-04-24T01:17:16;2.28;;;1.23;;
52208;SDS011;38507;53.132;6.394;2023-04-24T01:19:42;1.52;;;1.23;;
52208;SDS011;38507;53.132;6.394;2023-04-24T01:22:13;1.50;;;1.20;;
52208;SDS011;38507;53.132;6.394;2023-04-24T01:24:39;2.22;;;1.10;;
52208;SDS011;38507;53.132;6.394;2023-04-24T01:27:06;1.67;;;1.08;;
52208;SDS011;38507;53.132;6.394;2023-04-24T01:29:33;1.60;;;1.10;;
52208;SDS011;38507;53.132;6.394;2023-04-24T01:31:59;1.50;;;1.02;;
52208;SDS011;38507;53.132;6.394;2023-04-24T01:34:25;1.10;;;0.93;;
52208;SDS011;38507;53.132;6.394;2023-04-24T01:36:51;1.90;;;1.02;;
52208;SDS011;38507;53.132;6.394;2023-04-24T01:39:17;2.10;;;1.30;;
52208;SDS011;38507;53.132;6.394;2023-04-24T01:41:45;4.10;;;1.20;;
52208;SDS011;38507;53.132;6.394;2023-04-24T01:44:11;1.48;;;1.10;;
52208;SDS011;38507;53.132;6.394;2023-04-24T01:46:37;2.67;;;1.42;;
52208;SDS011;38507;53.132;6.394;2023-04-24T01:49:03;2.80;;;1.17;;
52208;SDS011;38507;53.132;6.394;2023-04-24T01:51:29;2.53;;;1.25;;
52208;SDS011;38507;53.132;6.394;2023-04-24T01:53:55;2.65;;;1.42;;
52208;SDS011;38507;53.132;6.394;2023-04-24T01:56:21;2.53;;;1.77;;
52208;SDS011;38507;53.132;6.394;2023-04-24T01:58:47;2.30;;;1.65;;
52208;SDS011;38507;53.132;6.394;2023-04-24T02:01:18;2.25;;;1.70;;
52208;SDS011;38507;53.132;6.394;2023-04-24T02:03:48;2.50;;;2.10;;
52208;SDS011;38507;53.132;6.394;2023-04-24T02:06:14;3.17;;;2.20;;
52208;SDS011;38507;53.132;6.394;2023-04-24T02:08:39;5.75;;;2.35;;
52208;SDS011;38507;53.132;6.394;2023-04-24T02:11:05;3.15;;;2.10;;
52208;SDS011;38507;53.132;6.394;2023-04-24T02:13:31;3.80;;;2.53;;
52208;SDS011;38507;53.132;6.394;2023-04-24T02:15:57;3.35;;;2.55;;
52208;SDS011;38507;53.132;6.394;2023-04-24T02:18:23;4.22;;;3.08;;
52208;SDS011;38507;53.132;6.394;2023-04-24T02:20:49;4.32;;;3.00;;
52208;SDS011;38507;53.132;6.394;2023-04-24T02:23:15;3.45;;;2.78;;
52208;SDS011;38507;53.132;6.394;2023-04-24T02:25:40;5.07;;;2.92;;
52208;SDS011;38507;53.132;6.394;2023-04-24T02:28:06;4.53;;;3.50;;
52208;SDS011;38507;53.132;6.394;2023-04-24T02:30:32;4.82;;;3.53;;
52208;SDS011;38507;53.132;6.394;2023-04-24T02:32:57;3.85;;;3.45;;
52208;SDS011;38507;53.132;6.394;2023-04-24T02:35:23;4.20;;;3.70;;
52208;SDS011;38507;53.132;6.394;2023-04-24T02:37:49;6.47;;;4.40;;
52208;SDS011;38507;53.132;6.394;2023-04-24T02:40:14;4.68;;;3.60;;
52208;SDS011;38507;53.132;6.394;2023-04-24T02:42:40;6.28;;;4.60;;
52208;SDS011;38507;53.132;6.394;2023-04-24T02:45:06;5.90;;;4.43;;
52208;SDS011;38507;53.132;6.394;2023-04-24T02:47:32;7.50;;;4.60;;
52208;SDS011;38507;53.132;6.394;2023-04-24T02:49:57;5.72;;;4.88;;
52208;SDS011;38507;53.132;6.394;2023-04-24T02:52:23;6.97;;;5.00;;
52208;SDS011;38507;53.132;6.394;2023-04-24T02:54:49;8.98;;;5.05;;
52208;SDS011;38507;53.132;6.394;2023-04-24T02:57:14;6.40;;;4.97;;
52208;SDS011;38507;53.132;6.394;2023-04-24T02:59:40;9.10;;;5.47;;
52208;SDS011;38507;53.132;6.394;2023-04-24T03:02:05;7.25;;;6.25;;
52208;SDS011;38507;53.132;6.394;2023-04-24T03:04:31;8.07;;;5.93;;
52208;SDS011;38507;53.132;6.394;2023-04-24T03:06:57;8.65;;;5.78;;
52208;SDS011;38507;53.132;6.394;2023-04-24T03:09:23;7.03;;;6.05;;
52208;SDS011;38507;53.132;6.394;2023-04-24T03:11:49;9.18;;;6.75;;
52208;SDS011;38507;53.132;6.394;2023-04-24T03:14:15;7.75;;;6.95;;
52208;SDS011;38507;53.132;6.394;2023-04-24T03:16:41;8.88;;;7.20;;
52208;SDS011;38507;53.132;6.394;2023-04-24T03:19:07;10.50;;;7.50;;
52208;SDS011;38507;53.132;6.394;2023-04-24T03:21:33;10.70;;;7.65;;
52208;SDS011;38507;53.132;6.394;2023-04-24T03:24:00;8.63;;;7.47;;
52208;SDS011;38507;53.132;6.394;2023-04-24T03:26:26;11.77;;;7.88;;
52208;SDS011;38507;53.132;6.394;2023-04-24T03:28:51;10.15;;;8.18;;
52208;SDS011;38507;53.132;6.394;2023-04-24T03:31:17;12.85;;;8.25;;
52208;SDS011;38507;53.132;6.394;2023-04-24T03:33:44;11.27;;;8.35;;
52208;SDS011;38507;53.132;6.394;2023-04-24T03:36:09;10.55;;;9.18;;
52208;SDS011;38507;53.132;6.394;2023-04-24T03:38:35;10.50;;;8.35;;
52208;SDS011;38507;53.132;6.394;2023-04-24T03:41:00;10.23;;;8.48;;
52208;SDS011;38507;53.132;6.394;2023-04-24T03:43:26;10.88;;;9.32;;
52208;SDS011;38507;53.132;6.394;2023-04-24T03:45:52;13.00;;;10.00;;
52208;SDS011;38507;53.132;6.394;2023-04-24T03:48:18;10.20;;;9.18;;
52208;SDS011;38507;53.132;6.394;2023-04-24T03:50:44;10.85;;;9.75;;
52208;SDS011;38507;53.132;6.394;2023-04-24T03:53:09;12.15;;;9.82;;
52208;SDS011;38507;53.132;6.394;2023-04-24T03:55:35;11.93;;;9.90;;
52208;SDS011;38507;53.132;6.394;2023-04-24T03:58:01;12.07;;;9.88;;
52208;SDS011;38507;53.132;6.394;2023-04-24T04:00:26;13.90;;;10.75;;
52208;SDS011;38507;53.132;6.394;2023-04-24T04:02:52;11.95;;;10.25;;
52208;SDS011;38507;53.132;6.394;2023-04-24T04:05:18;10.98;;;9.38;;
52208;SDS011;38507;53.132;6.394;2023-04-24T04:07:44;11.82;;;9.70;;
52208;SDS011;38507;53.132;6.394;2023-04-24T04:10:10;11.25;;;9.25;;
52208;SDS011;38507;53.132;6.394;2023-04-24T04:12:35;12.88;;;8.45;;
52208;SDS011;38507;53.132;6.394;2023-04-24T04:15:01;10.60;;;9.23;;
52208;SDS011;38507;53.132;6.394;2023-04-24T04:17:27;10.20;;;9.20;;
52208;SDS011;38507;53.132;6.394;2023-04-24T04:19:52;9.10;;;8.18;;
52208;SDS011;38507;53.132;6.394;2023-04-24T04:22:18;8.85;;;7.88;;
52208;SDS011;38507;53.132;6.394;2023-04-24T04:24:43;8.15;;;7.18;;
52208;SDS011;38507;53.132;6.394;2023-04-24T04:27:09;9.00;;;7.60;;
52208;SDS011;38507;53.132;6.394;2023-04-24T04:29:36;7.95;;;6.75;;
52208;SDS011;38507;53.132;6.394;2023-04-24T04:32:02;7.22;;;6.38;;
52208;SDS011;38507;53.132;6.394;2023-04-24T04:34:27;7.90;;;6.97;;
52208;SDS011;38507;53.132;6.394;2023-04-24T04:36:54;8.40;;;7.50;;
52208;SDS011;38507;53.132;6.394;2023-04-24T04:39:20;7.13;;;6.38;;
52208;SDS011;38507;53.132;6.394;2023-04-24T04:41:46;8.57;;;6.90;;
52208;SDS011;38507;53.132;6.394;2023-04-24T04:44:13;6.85;;;5.93;;
52208;SDS011;38507;53.132;6.394;2023-04-24T04:46:40;7.88;;;5.75;;
52208;SDS011;38507;53.132;6.394;2023-04-24T04:49:06;7.90;;;5.47;;
52208;SDS011;38507;53.132;6.394;2023-04-24T04:51:33;4.50;;;2.95;;
52208;SDS011;38507;53.132;6.394;2023-04-24T04:53:59;4.57;;;2.38;;
52208;SDS011;38507;53.132;6.394;2023-04-24T04:56:25;3.60;;;2.45;;
52208;SDS011;38507;53.132;6.394;2023-04-24T04:58:51;3.65;;;2.70;;
52208;SDS011;38507;53.132;6.394;2023-04-24T05:01:16;2.60;;;1.60;;
52208;SDS011;38507;53.132;6.394;2023-04-24T05:03:42;3.28;;;2.13;;
52208;SDS011;38507;53.132;6.394;2023-04-24T05:06:08;3.70;;;1.60;;
52208;SDS011;38507;53.132;6.394;2023-04-24T05:08:34;1.50;;;1.02;;
52208;SDS011;38507;53.132;6.394;2023-04-24T05:10:59;1.95;;;1.23;;
52208;SDS011;38507;53.132;6.394;2023-04-24T05:13:25;2.60;;;1.10;;
52208;SDS011;38507;53.132;6.394;2023-04-24T05:15:51;2.38;;;1.27;;
52208;SDS011;38507;53.132;6.394;2023-04-24T05:18:17;2.35;;;1.40;;
52208;SDS011;38507;53.132;6.394;2023-04-24T05:20:43;2.42;;;1.35;;
52208;SDS011;38507;53.132;6.394;2023-04-24T05:23:09;4.65;;;1.20;;
52208;SDS011;38507;53.132;6.394;2023-04-24T05:25:35;2.05;;;1.40;;
52208;SDS011;38507;53.132;6.394;2023-04-24T05:28:01;4.13;;;1.73;;
52208;SDS011;38507;53.132;6.394;2023-04-24T05:30:27;4.13;;;1.98;;
52208;SDS011;38507;53.132;6.394;2023-04-24T05:32:53;3.10;;;1.92;;
52208;SDS011;38507;53.132;6.394;2023-04-24T05:35:18;3.80;;;2.00;;
52208;SDS011;38507;53.132;6.394;2023-04-24T05:37:44;4.15;;;2.40;;
52208;SDS011;38507;53.132;6.394;2023-04-24T05:40:10;5.45;;;2.60;;
52208;SDS011;38507;53.132;6.394;2023-04-24T05:42:36;3.30;;;2.13;;
52208;SDS011;38507;53.132;6.394;2023-04-24T05:45:02;4.03;;;2.20;;
52208;SDS011;38507;53.132;6.394;2023-04-24T05:47:29;2.33;;;1.60;;
52208;SDS011;38507;53.132;6.394;2023-04-24T05:49:55;4.60;;;1.80;;
52208;SDS011;38507;53.132;6.394;2023-04-24T05:52:20;3.40;;;1.77;;
52208;SDS011;38507;53.132;6.394;2023-04-24T05:54:46;3.35;;;1.85;;
52208;SDS011;38507;53.132;6.394;2023-04-24T05:57:11;4.55;;;2.30;;
52208;SDS011;38507;53.132;6.394;2023-04-24T05:59:37;4.60;;;2.10;;
52208;SDS011;38507;53.132;6.394;2023-04-24T06:02:03;3.72;;;2.15;;
52208;SDS011;38507;53.132;6.394;2023-04-24T06:04:29;6.43;;;2.50;;
52208;SDS011;38507;53.132;6.394;2023-04-24T06:06:55;4.22;;;2.53;;
52208;SDS011;38507;53.132;6.394;2023-04-24T06:09:23;6.93;;;2.83;;
52208;SDS011;38507;53.132;6.394;2023-04-24T06:11:50;7.72;;;3.28;;
52208;SDS011;38507;53.132;6.394;2023-04-24T06:14:19;7.82;;;3.30;;
52208;SDS011;38507;53.132;6.394;2023-04-24T06:16:45;7.35;;;3.53;;
52208;SDS011;38507;53.132;6.394;2023-04-24T06:19:10;6.15;;;3.20;;
52208;SDS011;38507;53.132;6.394;2023-04-24T06:21:36;10.23;;;3.95;;
52208;SDS011;38507;53.132;6.394;2023-04-24T06:24:01;8.32;;;4.00;;
52208;SDS011;38507;53.132;6.394;2023-04-24T06:26:28;8.60;;;3.70;;
52208;SDS011;38507;53.132;6.394;2023-04-24T06:28:54;11.00;;;4.18;;
52208;SDS011;38507;53.132;6.394;2023-04-24T06:31:20;8.25;;;4.05;;
52208;SDS011;38507;53.132;6.394;2023-04-24T06:33:46;5.40;;;3.63;;
52208;SDS011;38507;53.132;6.394;2023-04-24T06:36:13;5.53;;;3.13;;
52208;SDS011;38507;53.132;6.394;2023-04-24T06:38:39;6.43;;;3.25;;
52208;SDS011;38507;53.132;6.394;2023-04-24T06:41:05;5.35;;;2.50;;
52208;SDS011;38507;53.132;6.394;2023-04-24T06:43:31;4.38;;;2.50;;
52208;SDS011;38507;53.132;6.394;2023-04-24T06:45:57;5.95;;;2.75;;
52208;SDS011;38507;53.132;6.394;2023-04-24T06:48:23;6.63;;;3.00;;
52208;SDS011;38507;53.132;6.394;2023-04-24T06:50:50;6.15;;;2.53;;
52208;SDS011;38507;53.132;6.394;2023-04-24T06:53:16;6.03;;;2.22;;
52208;SDS011;38507;53.132;6.394;2023-04-24T06:55:41;3.55;;;2.25;;
52208;SDS011;38507;53.132;6.394;2023-04-24T06:58:09;4.97;;;2.50;;
52208;SDS011;38507;53.132;6.394;2023-04-24T07:00:35;4.38;;;2.33;;
52208;SDS011;38507;53.132;6.394;2023-04-24T07:03:01;5.80;;;1.92;;
52208;SDS011;38507;53.132;6.394;2023-04-24T07:05:27;5.78;;;2.05;;
52208;SDS011;38507;53.132;6.394;2023-04-24T07:07:53;4.63;;;2.10;;
52208;SDS011;38507;53.132;6.394;2023-04-24T07:10:18;5.40;;;2.33;;
52208;SDS011;38507;53.132;6.394;2023-04-24T07:12:45;12.32;;;2.08;;
52208;SDS011;38507;53.132;6.394;2023-04-24T07:15:11;4.93;;;1.95;;
52208;SDS011;38507;53.132;6.394;2023-04-24T07:17:37;2.92;;;1.77;;
52208;SDS011;38507;53.132;6.394;2023-04-24T07:20:08;5.30;;;1.88;;
52208;SDS011;38507;53.132;6.394;2023-04-24T07:22:35;5.65;;;2.00;;
52208;SDS011;38507;53.132;6.394;2023-04-24T07:25:02;7.13;;;2.53;;
52208;SDS011;38507;53.132;6.394;2023-04-24T07:27:28;5.75;;;1.83;;
52208;SDS011;38507;53.132;6.394;2023-04-24T07:29:54;6.35;;;1.98;;
52208;SDS011;38507;53.132;6.394;2023-04-24T07:32:19;7.40;;;1.67;;
52208;SDS011;38507;53.132;6.394;2023-04-24T07:34:45;9.23;;;1.90;;
52208;SDS011;38507;53.132;6.394;2023-04-24T07:37:11;4.65;;;1.40;;
52208;SDS011;38507;53.132;6.394;2023-04-24T07:39:36;8.30;;;1.90;;
52208;SDS011;38507;53.132;6.394;2023-04-24T07:42:02;7.30;;;1.92;;
52208;SDS011;38507;53.132;6.394;2023-04-24T07:44:28;8.75;;;3.20;;
52208;SDS011;38507;53.132;6.394;2023-04-24T07:46:54;8.50;;;3.33;;
52208;SDS011;38507;53.132;6.394;2023-04-24T07:49:20;11.43;;;5.18;;
52208;SDS011;38507;53.132;6.394;2023-04-24T07:51:46;13.20;;;6.97;;
52208;SDS011;38507;53.132;6.394;2023-04-24T07:54:12;17.50;;;7.72;;
52208;SDS011;38507;53.132;6.394;2023-04-24T07:56:37;18.50;;;8.88;;
52208;SDS011;38507;53.132;6.394;2023-04-24T07:59:04;19.92;;;9.95;;
52208;SDS011;38507;53.132;6.394;2023-04-24T08:01:30;20.88;;;10.95;;
52208;SDS011;38507;53.132;6.394;2023-04-24T08:03:56;21.92;;;11.32;;
52208;SDS011;38507;53.132;6.394;2023-04-24T08:06:21;23.38;;;11.25;;
52208;SDS011;38507;53.132;6.394;2023-04-24T08:08:47;23.05;;;12.02;;
52208;SDS011;38507;53.132;6.394;2023-04-24T08:11:13;22.02;;;10.73;;
52208;SDS011;38507;53.132;6.394;2023-04-24T08:13:39;24.50;;;12.95;;
52208;SDS011;38507;53.132;6.394;2023-04-24T08:16:04;23.38;;;12.02;;
52208;SDS011;38507;53.132;6.394;2023-04-24T08:18:30;20.70;;;12.02;;
52208;SDS011;38507;53.132;6.394;2023-04-24T08:20:56;18.50;;;11.95;;
52208;SDS011;38507;53.132;6.394;2023-04-24T08:23:26;26.05;;;11.77;;
52208;SDS011;38507;53.132;6.394;2023-04-24T08:25:52;26.98;;;11.50;;
52208;SDS011;38507;53.132;6.394;2023-04-24T08:28:17;23.70;;;12.27;;
52208;SDS011;38507;53.132;6.394;2023-04-24T08:30:45;22.25;;;10.93;;
52208;SDS011;38507;53.132;6.394;2023-04-24T08:33:12;24.10;;;11.75;;
52208;SDS011;38507;53.132;6.394;2023-04-24T08:35:38;21.27;;;11.18;;
52208;SDS011;38507;53.132;6.394;2023-04-24T08:38:04;24.10;;;10.73;;
52208;SDS011;38507;53.132;6.394;2023-04-24T08:40:30;21.80;;;10.95;;
52208;SDS011;38507;53.132;6.394;2023-04-24T08:43:00;24.90;;;10.82;;
52208;SDS011;38507;53.132;6.394;2023-04-24T08:45:26;20.02;;;10.48;;
52208;SDS011;38507;53.132;6.394;2023-04-24T08:47:52;22.20;;;10.65;;
52208;SDS011;38507;53.132;6.394;2023-04-24T08:50:19;20.80;;;11.48;;
52208;SDS011;38507;53.132;6.394;2023-04-24T08:52:46;19.13;;;11.40;;
52208;SDS011;38507;53.132;6.394;2023-04-24T08:55:14;23.38;;;11.15;;
52208;SDS011;38507;53.132;6.394;2023-04-24T08:57:43;23.15;;;11.70;;
52208;SDS011;38507;53.132;6.394;2023-04-24T09:00:10;18.80;;;11.00;;
52208;SDS011;38507;53.132;6.394;2023-04-24T09:02:38;22.55;;;11.38;;
52208;SDS011;38507;53.132;6.394;2023-04-24T09:05:07;17.42;;;10.60;;
52208;SDS011;38507;53.132;6.394;2023-04-24T09:07:34;19.00;;;9.77;;
52208;SDS011;38507;53.132;6.394;2023-04-24T09:10:02;14.80;;;8.18;;
52208;SDS011;38507;53.132;6.394;2023-04-24T09:12:28;15.45;;;7.95;;
52208;SDS011;38507;53.132;6.394;2023-04-24T09:14:53;12.18;;;6.93;;
52208;SDS011;38507;53.132;6.394;2023-04-24T09:17:20;16.30;;;6.95;;
52208;SDS011;38507;53.132;6.394;2023-04-24T09:19:48;17.38;;;6.97;;
52208;SDS011;38507;53.132;6.394;2023-04-24T09:22:14;17.60;;;6.55;;
52208;SDS011;38507;53.132;6.394;2023-04-24T09:24:40;9.95;;;6.15;;
52208;SDS011;38507;53.132;6.394;2023-04-24T09:27:06;13.38;;;6.50;;
52208;SDS011;38507;53.132;6.394;2023-04-24T09:29:32;11.48;;;6.68;;
52208;SDS011;38507;53.132;6.394;2023-04-24T09:31:58;15.93;;;6.63;;
52208;SDS011;38507;53.132;6.394;2023-04-24T09:34:25;13.93;;;6.05;;
52208;SDS011;38507;53.132;6.394;2023-04-24T09:36:54;9.73;;;4.80;;
52208;SDS011;38507;53.132;6.394;2023-04-24T09:39:20;12.95;;;5.07;;
52208;SDS011;38507;53.132;6.394;2023-04-24T09:41:53;11.35;;;5.38;;
52208;SDS011;38507;53.132;6.394;2023-04-24T09:44:27;15.18;;;5.38;;
52208;SDS011;38507;53.132;6.394;2023-04-24T09:49:24;16.60;;;5.60;;
52208;SDS011;38507;53.132;6.394;2023-04-24T09:51:51;17.58;;;5.70;;
52208;SDS011;38507;53.132;6.394;2023-04-24T09:54:20;15.95;;;5.53;;
52208;SDS011;38507;53.132;6.394;2023-04-24T09:56:47;13.80;;;4.65;;
52208;SDS011;38507;53.132;6.394;2023-04-24T09:59:15;12.15;;;3.95;;
52208;SDS011;38507;53.132;6.394;2023-04-24T10:01:42;12.60;;;4.35;;
52208;SDS011;38507;53.132;6.394;2023-04-24T10:04:16;9.02;;;3.70;;
52208;SDS011;38507;53.132;6.394;2023-04-24T10:06:45;11.30;;;3.10;;
52208;SDS011;38507;53.132;6.394;2023-04-24T10:09:14;11.90;;;3.80;;
52208;SDS011;38507;53.132;6.394;2023-04-24T10:11:44;13.30;;;3.45;;
52208;SDS011;38507;53.132;6.394;2023-04-24T10:14:14;12.25;;;3.13;;
52208;SDS011;38507;53.132;6.394;2023-04-24T10:16:45;14.10;;;3.45;;
52208;SDS011;38507;53.132;6.394;2023-04-24T10:19:12;15.02;;;4.15;;
52208;SDS011;38507;53.132;6.394;2023-04-24T10:21:40;12.75;;;3.65;;
52208;SDS011;38507;53.132;6.394;2023-04-24T10:24:15;10.48;;;3.15;;
52208;SDS011;38507;53.132;6.394;2023-04-24T10:26:42;10.85;;;2.50;;
52208;SDS011;38507;53.132;6.394;2023-04-24T10:29:13;11.60;;;2.60;;
52208;SDS011;38507;53.132;6.394;2023-04-24T10:31:40;6.32;;;2.47;;
52208;SDS011;38507;53.132;6.394;2023-04-24T10:34:06;8.77;;;2.45;;
52208;SDS011;38507;53.132;6.394;2023-04-24T10:36:34;11.45;;;2.50;;
52208;SDS011;38507;53.132;6.394;2023-04-24T10:39:02;12.35;;;2.15;;
52208;SDS011;38507;53.132;6.394;2023-04-24T10:41:31;10.60;;;2.42;;
52208;SDS011;38507;53.132;6.394;2023-04-24T10:44:07;12.38;;;2.20;;
52208;SDS011;38507;53.132;6.394;2023-04-24T10:46:36;7.47;;;2.20;;
52208;SDS011;38507;53.132;6.394;2023-04-24T10:49:06;9.30;;;2.15;;
52208;SDS011;38507;53.132;6.394;2023-04-24T10:51:52;11.13;;;2.17;;
52208;SDS011;38507;53.132;6.394;2023-04-24T10:54:25;8.93;;;2.60;;
52208;SDS011;38507;53.132;6.394;2023-04-24T10:56:53;10.82;;;2.63;;
52208;SDS011;38507;53.132;6.394;2023-04-24T10:59:38;9.52;;;2.10;;
52208;SDS011;38507;53.132;6.394;2023-04-24T11:02:04;8.30;;;2.45;;
52208;SDS011;38507;53.132;6.394;2023-04-24T11:04:33;8.02;;;1.50;;
52208;SDS011;38507;53.132;6.394;2023-04-24T11:07:00;7.65;;;1.88;;
52208;SDS011;38507;53.132;6.394;2023-04-24T11:09:27;8.20;;;1.77;;
52208;SDS011;38507;53.132;6.394;2023-04-24T11:12:05;12.57;;;2.03;;
52208;SDS011;38507;53.132;6.394;2023-04-24T11:20:09;8.80;;;1.77;;
52208;SDS011;38507;53.132;6.394;2023-04-24T11:22:37;6.55;;;1.30;;
52208;SDS011;38507;53.132;6.394;2023-04-24T11:25:07;7.75;;;1.58;;
52208;SDS011;38507;53.132;6.394;2023-04-24T11:30:09;14.65;;;1.60;;
52208;SDS011;38507;53.132;6.394;2023-04-24T11:32:40;6.85;;;1.50;;
52208;SDS011;38507;53.132;6.394;2023-04-24T11:35:14;8.95;;;1.92;;
52208;SDS011;38507;53.132;6.394;2023-04-24T11:37:44;8.00;;;1.90;;
52208;SDS011;38507;53.132;6.394;2023-04-24T11:40:14;7.70;;;1.38;;
52208;SDS011;38507;53.132;6.394;2023-04-24T11:42:41;16.50;;;1.60;;
52208;SDS011;38507;53.132;6.394;2023-04-24T11:47:38;7.05;;;1.33;;
52208;SDS011;38507;53.132;6.394;2023-04-24T11:50:05;7.10;;;1.50;;
52208;SDS011;38507;53.132;6.394;2023-04-24T11:52:37;7.53;;;1.33;;
52208;SDS011;38507;53.132;6.394;2023-04-24T11:55:05;9.18;;;1.52;;
52208;SDS011;38507;53.132;6.394;2023-04-24T11:57:33;7.53;;;1.85;;
52208;SDS011;38507;53.132;6.394;2023-04-24T12:00:03;13.02;;;2.22;;
52208;SDS011;38507;53.132;6.394;2023-04-24T12:02:30;7.43;;;1.45;;
52208;SDS011;38507;53.132;6.394;2023-04-24T12:04:56;9.35;;;1.70;;
52208;SDS011;38507;53.132;6.394;2023-04-24T12:07:22;6.07;;;1.40;;
52208;SDS011;38507;53.132;6.394;2023-04-24T12:12:23;4.85;;;1.20;;
52208;SDS011;38507;53.132;6.394;2023-04-24T12:14:57;4.75;;;1.27;;
52208;SDS011;38507;53.132;6.394;2023-04-24T12:17:24;6.85;;;1.33;;
52208;SDS011;38507;53.132;6.394;2023-04-24T12:19:51;3.88;;;1.30;;
52208;SDS011;38507;53.132;6.394;2023-04-24T12:22:18;7.15;;;1.83;;
52208;SDS011;38507;53.132;6.394;2023-04-24T12:25:00;10.55;;;1.40;;
52208;SDS011;38507;53.132;6.394;2023-04-24T12:27:31;4.97;;;1.00;;
52208;SDS011;38507;53.132;6.394;2023-04-24T12:30:00;6.65;;;1.13;;
52208;SDS011;38507;53.132;6.394;2023-04-24T12:32:28;3.97;;;0.95;;
52208;SDS011;38507;53.132;6.394;2023-04-24T12:34:54;6.80;;;1.38;;
52208;SDS011;38507;53.132;6.394;2023-04-24T12:37:22;8.20;;;1.60;;
52208;SDS011;38507;53.132;6.394;2023-04-24T12:40:00;11.57;;;2.10;;
52208;SDS011;38507;53.132;6.394;2023-04-24T12:42:26;18.20;;;5.70;;
52208;SDS011;38507;53.132;6.394;2023-04-24T12:44:55;7.38;;;1.80;;
52208;SDS011;38507;53.132;6.394;2023-04-24T12:47:24;10.68;;;3.22;;
52208;SDS011;38507;53.132;6.394;2023-04-24T12:49:50;22.67;;;4.53;;
52208;SDS011;38507;53.132;6.394;2023-04-24T12:52:17;8.68;;;1.25;;
52208;SDS011;38507;53.132;6.394;2023-04-24T12:54:47;8.50;;;1.67;;
52208;SDS011;38507;53.132;6.394;2023-04-24T12:57:12;12.50;;;1.55;;
52208;SDS011;38507;53.132;6.394;2023-04-24T12:59:38;5.95;;;1.80;;
52208;SDS011;38507;53.132;6.394;2023-04-24T13:02:04;13.20;;;1.50;;
52208;SDS011;38507;53.132;6.394;2023-04-24T13:04:31;9.18;;;1.95;;
52208;SDS011;38507;53.132;6.394;2023-04-24T13:06:57;7.70;;;1.08;;
52208;SDS011;38507;53.132;6.394;2023-04-24T13:09:23;6.10;;;1.00;;
52208;SDS011;38507;53.132;6.394;2023-04-24T13:11:49;7.25;;;0.95;;
52208;SDS011;38507;53.132;6.394;2023-04-24T13:14:15;3.13;;;0.93;;
52208;SDS011;38507;53.132;6.394;2023-04-24T13:16:41;4.82;;;0.63;;
52208;SDS011;38507;53.132;6.394;2023-04-24T13:19:06;7.10;;;0.90;;
52208;SDS011;38507;53.132;6.394;2023-04-24T13:21:32;7.30;;;0.70;;
52208;SDS011;38507;53.132;6.394;2023-04-24T13:23:57;3.85;;;0.80;;
52208;SDS011;38507;53.132;6.394;2023-04-24T13:26:24;9.63;;;0.88;;
52208;SDS011;38507;53.132;6.394;2023-04-24T13:28:50;3.17;;;0.63;;
52208;SDS011;38507;53.132;6.394;2023-04-24T13:31:16;4.72;;;0.88;;
52208;SDS011;38507;53.132;6.394;2023-04-24T13:33:42;3.80;;;0.60;;
52208;SDS011;38507;53.132;6.394;2023-04-24T13:36:07;4.28;;;0.70;;
52208;SDS011;38507;53.132;6.394;2023-04-24T13:38:34;4.75;;;0.60;;
52208;SDS011;38507;53.132;6.394;2023-04-24T13:41:00;2.85;;;0.60;;
52208;SDS011;38507;53.132;6.394;2023-04-24T13:43:25;3.55;;;0.90;;
52208;SDS011;38507;53.132;6.394;2023-04-24T13:45:51;3.83;;;0.60;;
52208;SDS011;38507;53.132;6.394;2023-04-24T13:48:17;6.55;;;0.82;;
52208;SDS011;38507;53.132;6.394;2023-04-24T13:50:43;2.45;;;0.52;;
52208;SDS011;38507;53.132;6.394;2023-04-24T13:53:12;8.27;;;1.17;;
52208;SDS011;38507;53.132;6.394;2023-04-24T13:55:38;8.63;;;0.95;;
52208;SDS011;38507;53.132;6.394;2023-04-24T13:58:04;5.90;;;1.13;;
52208;SDS011;38507;53.132;6.394;2023-04-24T14:00:30;7.10;;;1.50;;
52208;SDS011;38507;53.132;6.394;2023-04-24T14:02:56;6.32;;;1.27;;
52208;SDS011;38507;53.132;6.394;2023-04-24T14:05:21;7.90;;;1.48;;
52208;SDS011;38507;53.132;6.394;2023-04-24T14:07:47;11.77;;;2.10;;
52208;SDS011;38507;53.132;6.394;2023-04-24T14:10:13;12.40;;;1.58;;
52208;SDS011;38507;53.132;6.394;2023-04-24T14:12:38;11.02;;;1.98;;
52208;SDS011;38507;53.132;6.394;2023-04-24T14:15:04;10.68;;;2.22;;
52208;SDS011;38507;53.132;6.394;2023-04-24T14:17:31;14.43;;;2.15;;
52208;SDS011;38507;53.132;6.394;2023-04-24T14:19:57;13.00;;;2.00;;
52208;SDS011;38507;53.132;6.394;2023-04-24T14:22:24;10.18;;;2.03;;
52208;SDS011;38507;53.132;6.394;2023-04-24T14:24:50;10.45;;;2.05;;
52208;SDS011;38507;53.132;6.394;2023-04-24T14:27:16;11.85;;;2.08;;
52208;SDS011;38507;53.132;6.394;2023-04-24T14:29:41;10.93;;;2.40;;
52208;SDS011;38507;53.132;6.394;2023-04-24T14:32:07;5.43;;;1.55;;
52208;SDS011;38507;53.132;6.394;2023-04-24T14:34:34;10.95;;;1.88;;
52208;SDS011;38507;53.132;6.394;2023-04-24T14:36:59;9.02;;;2.00;;
52208;SDS011;38507;53.132;6.394;2023-04-24T14:39:25;9.90;;;1.73;;
52208;SDS011;38507;53.132;6.394;2023-04-24T14:41:51;8.75;;;1.98;;
52208;SDS011;38507;53.132;6.394;2023-04-24T14:44:16;7.15;;;2.15;;
52208;SDS011;38507;53.132;6.394;2023-04-24T14:46:42;10.57;;;2.33;;
52208;SDS011;38507;53.132;6.394;2023-04-24T14:49:08;10.38;;;2.17;;
52208;SDS011;38507;53.132;6.394;2023-04-24T14:51:35;9.25;;;2.67;;
52208;SDS011;38507;53.132;6.394;2023-04-24T14:54:01;12.65;;;2.78;;
52208;SDS011;38507;53.132;6.394;2023-04-24T14:56:27;5.82;;;1.95;;